Time;durP1;ratioP1;P1;durP2;ratioP2;P2;SDS_P1;SDS_P2;PMS_P1;PMS_P2;Temp;Humidity;BMP_temperature;BMP_pressure;BME280_temperature;BME280_humidity;BME280_pressure;Samples;Min_cycle;Max_cycle;Signal;HPM_P1;HPM_P2
2022/03/18 00:04:54;;;;;;;;;;;;;;;7.68;100.00;100053.78;10381776;28;19929;-83
2022/03/18 00:10:00;;;;;;;;;;;;;;;7.59;100.00;100067.88;10400819;28;19933;-79
2022/03/18 00:15:00;;;;;;;;;;;;;;;7.54;100.00;100063.31;10363180;28;20301;-80
2022/03/18 00:20:02;;;;;;;;;;;;;;;7.51;100.00;100063.03;10336127;28;19929;-80
2022/03/18 00:25:04;;;;;;;;;;;;;;;7.48;100.00;100068.88;10384101;28;19988;-80
2022/03/18 00:30:14;;;;;;;;;;;;;;;7.40;100.00;100073.63;10411632;28;19929;-79
2022/03/18 00:35:14;;;;;;;;;;;;;;;7.37;100.00;100070.69;10398763;28;20055;-78
2022/03/18 00:40:15;;;;;;;;;;;;;;;7.24;100.00;100073.81;10396362;28;20526;-78
2022/03/18 00:45:15;;;;;;;;;;;;;;;7.23;100.00;100074.88;10398811;28;19951;-80
2022/03/18 00:55:37;;;;;;;;;;;;;;;7.15;100.00;100083.38;10418572;28;19960;-78
2022/03/18 01:00:38;;;;;;;;;;;;;;;7.04;100.00;100077.94;10400695;28;20031;-77
2022/03/18 01:05:41;;;;;;;;;;;;;;;6.97;100.00;100096.03;10374076;28;20713;-79
2022/03/18 01:10:41;;;;;;;;;;;;;;;6.89;100.00;100104.50;10400612;28;19929;-78
2022/03/18 01:15:41;;;;;;;;;;;;;;;6.87;100.00;100100.50;10417116;28;19998;-78
2022/03/18 01:20:42;;;;;;;;;;;;;;;6.89;100.00;100114.38;10411052;28;19933;-78
2022/03/18 01:25:43;;;;;;;;;;;;;;;6.81;100.00;100104.97;10418255;28;20020;-78
2022/03/18 01:30:44;;;;;;;;;;;;;;;6.68;100.00;100116.06;10388383;28;20367;-78
2022/03/18 01:35:45;;;;;;;;;;;;;;;6.66;100.00;100118.97;10388995;28;19925;-79
2022/03/18 01:40:45;;;;;;;;;;;;;;;6.65;100.00;100127.22;10414566;28;19913;-79
2022/03/18 01:45:46;;;;;;;;;;;;;;;6.49;100.00;100124.41;10424098;28;19933;-80
2022/03/18 01:50:46;;;;;;;;;;;;;;;6.53;100.00;100120.16;10401664;28;19930;-79
2022/03/18 01:55:46;;;;;;;;;;;;;;;6.48;100.00;100130.78;10401439;28;20000;-79
2022/03/18 02:00:51;;;;;;;;;;;;;;;6.50;100.00;100141.22;10406028;28;19933;-79
2022/03/18 02:05:51;;;;;;;;;;;;;;;6.52;100.00;100150.56;10400195;28;19929;-77
2022/03/18 02:10:52;;;;;;;;;;;;;;;6.51;100.00;100158.84;10412816;28;20011;-80
2022/03/18 02:15:52;;;;;;;;;;;;;;;6.59;100.00;100157.59;10394473;28;19940;-80
2022/03/18 02:20:53;;;;;;;;;;;;;;;6.61;100.00;100150.13;10387278;28;19929;-82
2022/03/18 02:25:55;;;;;;;;;;;;;;;6.58;100.00;100162.09;10391221;28;20363;-78
2022/03/18 02:30:55;;;;;;;;;;;;;;;6.51;100.00;100164.16;10422758;28;19937;-80
2022/03/18 02:35:56;;;;;;;;;;;;;;;6.58;100.00;100167.41;10368111;28;20374;-78
2022/03/18 02:40:56;;;;;;;;;;;;;;;6.55;100.00;100165.25;10375321;28;20423;-79
2022/03/18 02:45:58;;;;;;;;;;;;;;;6.56;100.00;100164.19;10384516;28;19933;-79
2022/03/18 02:51:00;;;;;;;;;;;;;;;6.60;100.00;100168.00;10383243;28;19940;-79
2022/03/18 02:56:02;;;;;;;;;;;;;;;6.57;100.00;100165.81;10375806;28;20029;-79
2022/03/18 03:01:06;;;;;;;;;;;;;;;6.55;100.00;100184.75;10402441;28;20372;-79
2022/03/18 03:11:30;;;;;;;;;;;;;;;6.39;100.00;100187.47;10429394;28;19936;-79
2022/03/18 03:16:31;;;;;;;;;;;;;;;6.38;100.00;100197.34;10426643;28;20329;-80
2022/03/18 03:21:31;;;;;;;;;;;;;;;6.33;100.00;100202.63;10413118;28;19910;-84
2022/03/18 03:26:33;;;;;;;;;;;;;;;6.25;100.00;100208.38;10418579;28;19913;-79
2022/03/18 03:31:34;;;;;;;;;;;;;;;6.24;100.00;100207.56;10441348;28;19925;-79
2022/03/18 03:36:34;;;;;;;;;;;;;;;6.24;100.00;100217.44;10400163;28;19931;-79
2022/03/18 03:41:35;;;;;;;;;;;;;;;6.19;100.00;100222.69;10364493;28;19976;-79
2022/03/18 03:46:35;;;;;;;;;;;;;;;6.11;100.00;100233.78;10383006;28;19940;-80
2022/03/18 03:51:36;;;;;;;;;;;;;;;6.12;100.00;100238.84;10416661;28;20426;-79
2022/03/18 03:56:39;;;;;;;;;;;;;;;6.13;100.00;100239.69;10389892;28;20368;-77
2022/03/18 04:01:42;;;;;;;;;;;;;;;6.16;100.00;100253.31;10420204;28;19939;-79
2022/03/18 04:06:43;;;;;;;;;;;;;;;6.13;100.00;100253.00;10419783;28;19973;-80
2022/03/18 04:11:43;;;;;;;;;;;;;;;6.20;100.00;100261.63;10445767;28;19951;-81
2022/03/18 04:16:48;;;;;;;;;;;;;;;6.06;100.00;100276.38;10413843;28;19913;-81
2022/03/18 04:21:50;;;;;;;;;;;;;;;6.12;100.00;100272.69;10442716;28;19933;-85
2022/03/18 04:26:57;;;;;;;;;;;;;;;6.10;100.00;100274.81;10431440;28;19993;-81
2022/03/18 04:32:01;;;;;;;;;;;;;;;5.99;100.00;100290.66;10433711;28;19921;-81
2022/03/18 04:37:01;;;;;;;;;;;;;;;6.08;100.00;100296.38;10439435;28;19953;-77
2022/03/18 04:42:04;;;;;;;;;;;;;;;6.05;100.00;100312.06;10437987;28;19925;-77
2022/03/18 04:47:05;;;;;;;;;;;;;;;5.96;100.00;100319.66;10425515;28;19940;-78
2022/03/18 04:52:06;;;;;;;;;;;;;;;5.97;100.00;100326.59;10396299;28;20741;-78
2022/03/18 04:57:16;;;;;;;;;;;;;;;5.98;100.00;100336.22;10380017;28;20001;-78
2022/03/18 05:02:17;;;;;;;;;;;;;;;5.86;100.00;100341.59;10418572;28;19929;-81
2022/03/18 05:07:19;;;;;;;;;;;;;;;5.80;100.00;100339.06;10395511;28;19917;-82
2022/03/18 05:12:22;;;;;;;;;;;;;;;5.77;100.00;100347.56;10401536;28;19940;-81
2022/03/18 05:17:23;;;;;;;;;;;;;;;5.67;100.00;100354.31;10403311;28;19933;-79
2022/03/18 05:22:23;;;;;;;;;;;;;;;5.66;100.00;100355.34;10376485;28;19965;-79
2022/03/18 05:27:24;;;;;;;;;;;;;;;5.52;100.00;100370.00;10400243;28;19929;-80
2022/03/18 05:32:25;;;;;;;;;;;;;;;5.55;100.00;100372.19;10381705;28;20012;-81
2022/03/18 05:37:27;;;;;;;;;;;;;;;5.49;100.00;100375.81;10360428;28;20067;-79
2022/03/18 05:42:27;;;;;;;;;;;;;;;5.53;100.00;100382.28;10405849;28;20008;-80
2022/03/18 05:47:29;;;;;;;;;;;;;;;5.50;100.00;100390.75;10410490;28;19935;-81
2022/03/18 05:52:30;;;;;;;;;;;;;;;5.47;100.00;100387.75;10388001;28;19948;-80
2022/03/18 05:57:32;;;;;;;;;;;;;;;5.49;100.00;100394.47;10409870;28;19937;-80
2022/03/18 06:02:34;;;;;;;;;;;;;;;5.53;100.00;100405.44;10406135;28;19926;-77
2022/03/18 06:07:36;;;;;;;;;;;;;;;5.49;100.00;100412.31;10382083;28;19933;-78
2022/03/18 06:12:37;;;;;;;;;;;;;;;5.56;100.00;100415.63;10423533;28;19941;-88
2022/03/18 06:17:38;;;;;;;;;;;;;;;5.56;100.00;100418.28;10400524;28;19925;-81
2022/03/18 06:22:38;;;;;;;;;;;;;;;5.55;100.00;100422.00;10371247;28;19972;-78
2022/03/18 06:27:38;;;;;;;;;;;;;;;5.60;100.00;100430.91;10405356;28;19956;-79
2022/03/18 06:32:41;;;;;;;;;;;;;;;5.65;100.00;100430.19;10391594;28;20363;-80
2022/03/18 06:37:42;;;;;;;;;;;;;;;5.64;100.00;100436.56;10378647;28;19929;-80
2022/03/18 06:42:43;;;;;;;;;;;;;;;5.71;100.00;100445.22;10414952;28;19936;-79
2022/03/18 06:47:44;;;;;;;;;;;;;;;5.82;100.00;100455.03;10431407;28;20024;-75
2022/03/18 06:52:46;;;;;;;;;;;;;;;5.86;100.00;100453.50;10414901;28;19929;-74
2022/03/18 06:57:47;;;;;;;;;;;;;;;5.90;100.00;100462.66;10372487;28;19932;-77
2022/03/18 07:02:47;;;;;;;;;;;;;;;6.03;100.00;100460.75;10365282;28;19940;-74
2022/03/18 07:07:50;;;;;;;;;;;;;;;6.05;100.00;100461.34;10363400;28;19936;-80
2022/03/18 07:12:52;;;;;;;;;;;;;;;6.15;100.00;100472.19;10383086;28;20460;-80
2022/03/18 07:18:01;;;;;;;;;;;;;;;6.03;100.00;100479.41;10341757;28;20046;-78
2022/03/18 07:23:04;;;;;;;;;;;;;;;6.27;100.00;100486.25;10370517;28;20312;-77
2022/03/18 07:28:10;;;;;;;;;;;;;;;6.21;100.00;100487.19;10376448;28;19936;-79
2022/03/18 07:33:10;;;;;;;;;;;;;;;6.18;100.00;100496.50;10394257;28;19952;-76
2022/03/18 07:38:13;;;;;;;;;;;;;;;6.12;100.00;100496.63;10374620;28;19929;-77
2022/03/18 07:43:15;;;;;;;;;;;;;;;6.36;100.00;100498.16;10384073;28;19929;-78
2022/03/18 07:48:18;;;;;;;;;;;;;;;6.33;100.00;100495.16;10365933;28;20917;-80
2022/03/18 07:53:20;;;;;;;;;;;;;;;6.66;100.00;100497.03;10343848;28;19929;-77
2022/03/18 07:58:21;;;;;;;;;;;;;;;6.73;100.00;100514.50;10374294;28;19929;-78
2022/03/18 08:03:22;;;;;;;;;;;;;;;6.75;100.00;100508.94;10392719;28;20024;-78
2022/03/18 08:08:24;;;;;;;;;;;;;;;7.00;100.00;100508.53;10391055;28;19964;-78
2022/03/18 08:13:26;;;;;;;;;;;;;;;7.25;100.00;100508.09;10403453;28;19961;-78
2022/03/18 08:18:28;;;;;;;;;;;;;;;7.37;100.00;100511.44;10427838;28;19925;-80
2022/03/18 08:23:32;;;;;;;;;;;;;;;7.38;100.00;100527.22;10393946;28;19965;-78
2022/03/18 08:28:32;;;;;;;;;;;;;;;7.53;100.00;100531.16;10405734;28;19929;-76
2022/03/18 08:33:33;;;;;;;;;;;;;;;7.77;100.00;100537.88;10382813;28;19933;-77
2022/03/18 08:38:33;;;;;;;;;;;;;;;7.64;100.00;100539.06;10324371;28;19929;-77
2022/03/18 08:43:34;;;;;;;;;;;;;;;7.93;100.00;100549.56;10373597;28;19929;-78
2022/03/18 08:48:35;;;;;;;;;;;;;;;8.48;100.00;100538.69;10393921;28;20012;-77
2022/03/18 08:53:35;;;;;;;;;;;;;;;8.20;100.00;100544.25;10396503;28;19969;-79
2022/03/18 08:58:36;;;;;;;;;;;;;;;7.78;100.00;100554.75;10400326;28;19981;-78
2022/03/18 09:03:37;;;;;;;;;;;;;;;7.92;100.00;100559.47;10408070;28;20039;-78
2022/03/18 09:08:39;;;;;;;;;;;;;;;7.99;100.00;100552.06;10392498;28;19944;-80
2022/03/18 09:13:40;;;;;;;;;;;;;;;7.87;100.00;100553.25;10386276;28;19934;-78
2022/03/18 09:18:40;;;;;;;;;;;;;;;7.86;100.00;100562.31;10370043;28;20048;-78
2022/03/18 09:23:41;;;;;;;;;;;;;;;8.02;100.00;100566.78;10377983;28;19983;-79
2022/03/18 09:28:43;;;;;;;;;;;;;;;8.21;100.00;100567.28;10427516;28;19936;-78
2022/03/18 09:33:43;;;;;;;;;;;;;;;8.26;100.00;100572.69;10379779;28;19980;-78
2022/03/18 09:38:44;;;;;;;;;;;;;;;8.59;100.00;100579.75;10394388;28;19934;-78
2022/03/18 09:43:45;;;;;;;;;;;;;;;9.05;100.00;100578.31;10382979;28;19933;-76
2022/03/18 09:48:46;;;;;;;;;;;;;;;8.95;100.00;100578.19;10401305;28;19945;-77
2022/03/18 09:53:47;;;;;;;;;;;;;;;8.71;100.00;100583.09;10391605;28;20020;-79
2022/03/18 09:58:48;;;;;;;;;;;;;;;8.60;100.00;100585.94;10395799;28;19972;-78
2022/03/18 10:03:50;;;;;;;;;;;;;;;8.64;100.00;100598.53;10397346;28;19925;-77
2022/03/18 10:08:51;;;;;;;;;;;;;;;9.10;100.00;100596.28;10402475;28;19933;-79
2022/03/18 10:14:02;;;;;;;;;;;;;;;9.36;100.00;100606.13;10433921;28;19936;-80
2022/03/18 10:19:11;;;;;;;;;;;;;;;9.25;100.00;100599.06;10433011;28;19940;-79
2022/03/18 10:24:12;;;;;;;;;;;;;;;9.01;100.00;100601.28;10414128;28;19929;-78
2022/03/18 10:29:14;;;;;;;;;;;;;;;9.02;100.00;100605.56;10418341;28;20422;-78
2022/03/18 10:39:37;;;;;;;;;;;;;;;9.82;100.00;100605.59;10411554;28;19952;-77
2022/03/18 10:44:50;;;;;;;;;;;;;;;9.95;100.00;100613.16;10395356;28;19985;-78
2022/03/18 10:49:51;;;;;;;;;;;;;;;10.32;100.00;100604.19;10406729;28;19929;-78
2022/03/18 10:54:54;;;;;;;;;;;;;;;9.44;100.00;100610.19;10406951;28;19952;-79
2022/03/18 10:59:54;;;;;;;;;;;;;;;9.82;100.00;100606.38;10341841;28;19933;-81
2022/03/18 11:04:58;;;;;;;;;;;;;;;9.37;100.00;100623.00;10383291;28;20379;-81
2022/03/18 11:15:17;;;;;;;;;;;;;;;10.43;100.00;100600.50;10400207;28;20388;-78
2022/03/18 11:20:21;;;;;;;;;;;;;;;10.80;100.00;100606.47;10377381;28;19992;-79
2022/03/18 11:25:23;;;;;;;;;;;;;;;10.36;100.00;100608.00;10399151;28;20511;-77
2022/03/18 11:30:25;;;;;;;;;;;;;;;10.90;100.00;100594.94;10379246;28;19933;-79
2022/03/18 11:35:27;;;;;;;;;;;;;;;11.15;100.00;100601.34;10402701;28;19940;-79
2022/03/18 11:40:33;;;;;;;;;;;;;;;11.48;100.00;100605.38;10396909;28;19929;-78
2022/03/18 11:45:37;;;;;;;;;;;;;;;11.09;100.00;100597.88;10408903;28;20355;-78
2022/03/18 11:50:40;;;;;;;;;;;;;;;10.63;100.00;100591.66;10404655;28;19933;-77
2022/03/18 11:55:45;;;;;;;;;;;;;;;10.85;100.00;100586.84;10392284;28;19928;-79
2022/03/18 12:00:46;;;;;;;;;;;;;;;11.43;100.00;100589.22;10405272;28;19964;-80
2022/03/18 12:05:57;;;;;;;;;;;;;;;11.10;100.00;100594.13;10407937;28;19917;-79
2022/03/18 12:11:00;;;;;;;;;;;;;;;11.01;100.00;100587.66;10423755;28;19921;-84
2022/03/18 12:16:00;;;;;;;;;;;;;;;11.26;100.00;100595.72;10392481;28;19932;-79
2022/03/18 12:21:02;;;;;;;;;;;;;;;11.47;100.00;100588.44;10417100;28;19929;-80
2022/03/18 12:26:06;;;;;;;;;;;;;;;11.28;100.00;100593.56;10354858;28;20024;-79
2022/03/18 12:31:15;;;;;;;;;;;;;;;11.96;100.00;100585.88;10392151;28;19991;-80
2022/03/18 12:36:22;;;;;;;;;;;;;;;11.87;100.00;100595.59;10408436;28;20281;-79
2022/03/18 12:41:33;;;;;;;;;;;;;;;11.96;97.05;100590.47;10387961;28;19933;-80
2022/03/18 12:46:35;;;;;;;;;;;;;;;12.09;96.99;100597.97;10415280;28;19930;-80
2022/03/18 12:51:36;;;;;;;;;;;;;;;12.36;98.14;100596.75;10381242;28;19940;-80
2022/03/18 12:56:39;;;;;;;;;;;;;;;11.91;96.40;100590.50;10389335;28;20008;-80
2022/03/18 13:01:49;;;;;;;;;;;;;;;12.09;92.45;100587.19;10387603;28;19932;-79
2022/03/18 13:06:51;;;;;;;;;;;;;;;11.86;95.72;100583.25;10382962;28;19960;-78
2022/03/18 13:11:52;;;;;;;;;;;;;;;11.83;96.83;100583.78;10409988;28;19929;-80
2022/03/18 13:16:58;;;;;;;;;;;;;;;12.26;93.84;100580.66;10390666;28;19929;-81
2022/03/18 13:21:59;;;;;;;;;;;;;;;12.40;95.27;100576.25;10394838;28;20020;-80
2022/03/18 13:27:00;;;;;;;;;;;;;;;12.26;94.05;100568.00;10410679;28;19935;-78
2022/03/18 13:37:27;;;;;;;;;;;;;;;12.37;94.37;100568.75;10430622;28;20034;-81
2022/03/18 13:42:27;;;;;;;;;;;;;;;12.16;96.38;100568.03;10403499;28;19925;-78
2022/03/18 13:47:28;;;;;;;;;;;;;;;11.76;97.74;100560.91;10412840;28;20021;-78
2022/03/18 13:52:31;;;;;;;;;;;;;;;11.75;99.93;100575.44;10434880;28;19920;-80
2022/03/18 13:57:46;;;;;;;;;;;;;;;10.91;100.00;100576.94;10426411;28;19937;-80
2022/03/18 14:02:58;;;;;;;;;;;;;;;10.80;100.00;100574.25;10428980;28;20052;-78
2022/03/18 14:07:59;;;;;;;;;;;;;;;10.68;100.00;100568.28;10439397;28;19933;-80
2022/03/18 14:13:03;;;;;;;;;;;;;;;10.46;100.00;100571.22;10405193;28;19929;-80
2022/03/18 14:18:10;;;;;;;;;;;;;;;10.50;100.00;100566.94;10401396;28;19925;-79
2022/03/18 14:23:15;;;;;;;;;;;;;;;10.45;100.00;100558.88;10419840;28;19936;-80
2022/03/18 14:28:24;;;;;;;;;;;;;;;10.36;100.00;100560.47;10406159;28;20335;-80
2022/03/18 14:33:30;;;;;;;;;;;;;;;10.69;100.00;100555.66;10391851;28;19959;-84
2022/03/18 14:38:33;;;;;;;;;;;;;;;11.00;100.00;100551.13;10401099;28;19940;-75
2022/03/18 14:43:34;;;;;;;;;;;;;;;10.86;100.00;100558.91;10392555;28;19925;-79
2022/03/18 14:48:35;;;;;;;;;;;;;;;10.64;100.00;100545.75;10398464;28;19929;-79
2022/03/18 14:53:41;;;;;;;;;;;;;;;10.51;100.00;100544.41;10392150;28;19933;-82
2022/03/18 14:58:43;;;;;;;;;;;;;;;10.35;100.00;100548.13;10402735;28;19992;-79
2022/03/18 15:03:46;;;;;;;;;;;;;;;10.61;100.00;100546.28;10403556;23;19969;-80
2022/03/18 15:08:47;;;;;;;;;;;;;;;10.41;100.00;100552.41;10375139;28;19929;-80
2022/03/18 15:13:48;;;;;;;;;;;;;;;10.62;100.00;100555.97;10351554;28;20020;-80
2022/03/18 15:18:49;;;;;;;;;;;;;;;10.46;100.00;100559.69;10362288;28;19953;-82
2022/03/18 15:23:52;;;;;;;;;;;;;;;10.34;100.00;100561.81;10355958;28;19933;-79
2022/03/18 15:28:53;;;;;;;;;;;;;;;10.65;100.00;100558.09;10366716;28;19933;-80
2022/03/18 15:33:54;;;;;;;;;;;;;;;10.47;100.00;100559.41;10358404;28;19934;-78
2022/03/18 15:38:56;;;;;;;;;;;;;;;10.32;100.00;100563.94;10389015;28;19914;-78
2022/03/18 15:43:57;;;;;;;;;;;;;;;10.11;100.00;100563.84;10381221;28;19921;-77
2022/03/18 15:48:58;;;;;;;;;;;;;;;9.97;100.00;100570.78;10406716;28;19984;-78
2022/03/18 15:54:01;;;;;;;;;;;;;;;9.92;100.00;100571.56;10368967;28;20450;-77
2022/03/18 16:00:00;;;;;;;;;;;;;;;9.96;100.00;100572.66;10368301;28;19929;-81
2022/03/18 16:05:02;;;;;;;;;;;;;;;9.93;100.00;100589.28;10362380;28;19983;-82
2022/03/18 16:10:04;;;;;;;;;;;;;;;9.53;100.00;100594.44;10343586;28;19925;-79
2022/03/18 16:15:05;;;;;;;;;;;;;;;9.31;100.00;100605.25;10390878;28;19925;-78
2022/03/18 16:20:09;;;;;;;;;;;;;;;9.07;100.00;100608.31;10360768;28;19952;-80
2022/03/18 16:25:10;;;;;;;;;;;;;;;8.77;100.00;100614.19;10355332;28;19926;-79
2022/03/18 16:30:13;;;;;;;;;;;;;;;8.59;100.00;100621.75;10374353;28;20022;-77
2022/03/18 16:35:15;;;;;;;;;;;;;;;8.34;100.00;100631.13;10394554;28;19936;-77
2022/03/18 16:40:17;;;;;;;;;;;;;;;8.02;100.00;100640.88;10395544;28;20040;-79
2022/03/18 16:45:24;;;;;;;;;;;;;;;7.69;100.00;100645.25;10382923;28;19929;-79
2022/03/18 16:50:28;;;;;;;;;;;;;;;7.59;100.00;100650.41;10383023;28;19927;-78
2022/03/18 16:55:30;;;;;;;;;;;;;;;7.50;100.00;100662.56;10417204;28;20041;-79
2022/03/18 17:00:33;;;;;;;;;;;;;;;7.39;100.00;100680.31;10375893;28;20462;-80
2022/03/18 17:05:34;;;;;;;;;;;;;;;7.23;100.00;100691.81;10379956;28;19941;-81
2022/03/18 17:10:36;;;;;;;;;;;;;;;7.04;100.00;100710.72;10387726;28;19934;-79
2022/03/18 17:15:38;;;;;;;;;;;;;;;6.93;100.00;100722.25;10402876;28;19952;-80
2022/03/18 17:20:38;;;;;;;;;;;;;;;6.68;100.00;100733.25;10373639;28;20156;-78
2022/03/18 17:25:40;;;;;;;;;;;;;;;6.55;100.00;100742.31;10400056;28;20009;-79
2022/03/18 17:30:40;;;;;;;;;;;;;;;6.49;100.00;100753.13;10403843;28;19937;-84
2022/03/18 17:35:41;;;;;;;;;;;;;;;6.27;100.00;100764.41;10407481;28;19913;-82
2022/03/18 17:40:43;;;;;;;;;;;;;;;6.19;100.00;100770.09;10416794;28;19925;-78
2022/03/18 17:45:45;;;;;;;;;;;;;;;6.10;100.00;100770.66;10400730;28;19929;-81
2022/03/18 17:50:48;;;;;;;;;;;;;;;6.04;100.00;100785.75;10407720;28;19925;-79
2022/03/18 17:55:49;;;;;;;;;;;;;;;6.02;100.00;100790.50;10404998;28;19933;-82
2022/03/18 18:00:51;;;;;;;;;;;;;;;5.98;100.00;100789.34;10383081;28;19929;-81
2022/03/18 18:05:51;;;;;;;;;;;;;;;5.93;100.00;100797.19;10407452;28;19951;-80
2022/03/18 18:10:55;;;;;;;;;;;;;;;5.85;100.00;100795.69;10398308;28;19985;-79
2022/03/18 18:15:57;;;;;;;;;;;;;;;5.88;100.00;100811.19;10405908;28;19925;-81
2022/03/18 18:26:23;;;;;;;;;;;;;;;5.85;100.00;100814.34;10427223;28;19936;-82
2022/03/18 18:31:23;;;;;;;;;;;;;;;5.88;100.00;100805.88;10390835;28;20076;-81
2022/03/18 18:36:23;;;;;;;;;;;;;;;5.78;100.00;100802.97;10411042;28;19919;-79
2022/03/18 18:41:28;;;;;;;;;;;;;;;5.63;100.00;100802.56;10416628;28;20007;-80
2022/03/18 18:46:29;;;;;;;;;;;;;;;5.56;100.00;100808.00;10425615;28;20019;-78
2022/03/18 18:51:34;;;;;;;;;;;;;;;5.64;100.00;100809.50;10399493;28;19964;-79
2022/03/18 18:56:34;;;;;;;;;;;;;;;5.61;100.00;100809.97;10400075;28;19929;-81
2022/03/18 19:01:39;;;;;;;;;;;;;;;5.63;100.00;100810.56;10426193;28;19933;-84
2022/03/18 19:07:30;;;;;;;;;;;;;;;5.54;100.00;100817.25;10502258;23;19926;-79
2022/03/18 19:12:32;;;;;;;;;;;;;;;5.54;100.00;100826.06;10488496;28;20011;-79
2022/03/18 19:17:34;;;;;;;;;;;;;;;5.44;100.00;100825.78;10468390;28;19935;-77
2022/03/18 19:22:36;;;;;;;;;;;;;;;5.34;100.00;100826.34;10489931;28;19948;-83
2022/03/18 19:27:37;;;;;;;;;;;;;;;5.30;100.00;100832.31;10476606;28;19936;-79
2022/03/18 19:32:42;;;;;;;;;;;;;;;5.38;100.00;100832.00;10459868;28;19925;-80
2022/03/18 19:37:43;;;;;;;;;;;;;;;5.42;100.00;100835.88;10468229;28;19932;-79
2022/03/18 19:42:52;;;;;;;;;;;;;;;5.34;100.00;100846.81;10456530;28;19936;-82
2022/03/18 19:47:54;;;;;;;;;;;;;;;5.29;100.00;100839.50;10429397;28;19934;-79
2022/03/18 19:52:57;;;;;;;;;;;;;;;5.27;100.00;100846.09;10421020;28;20475;-78
2022/03/18 20:03:19;;;;;;;;;;;;;;;5.09;100.00;100850.41;10454181;28;20314;-80
2022/03/18 20:08:20;;;;;;;;;;;;;;;5.14;100.00;100855.06;10405825;28;19996;-81
2022/03/18 20:13:22;;;;;;;;;;;;;;;5.13;100.00;100858.78;10426021;28;19964;-80
2022/03/18 20:18:29;;;;;;;;;;;;;;;5.10;100.00;100867.19;10461105;28;20903;-79
2022/03/18 20:23:32;;;;;;;;;;;;;;;5.12;100.00;100873.09;10438295;28;19929;-85
2022/03/18 20:28:34;;;;;;;;;;;;;;;5.11;100.00;100882.13;10432917;28;19941;-79
2022/03/18 20:33:35;;;;;;;;;;;;;;;4.94;100.00;100878.41;10442627;28;20447;-79
2022/03/18 20:38:35;;;;;;;;;;;;;;;4.85;100.00;100876.09;10473840;28;19948;-87
2022/03/18 20:43:36;;;;;;;;;;;;;;;4.76;100.00;100885.38;10506512;28;19925;-79
2022/03/18 20:48:38;;;;;;;;;;;;;;;4.70;100.00;100888.09;10493780;28;19931;-80
2022/03/18 20:53:39;;;;;;;;;;;;;;;4.64;100.00;100894.28;10464118;28;19931;-78
2022/03/18 20:58:40;;;;;;;;;;;;;;;4.59;100.00;100894.16;10491358;28;19963;-81
2022/03/18 21:03:44;;;;;;;;;;;;;;;4.63;100.00;100884.69;10474654;28;19933;-78
2022/03/18 21:08:46;;;;;;;;;;;;;;;4.68;100.00;100892.84;10463696;28;20023;-77
2022/03/18 21:13:55;;;;;;;;;;;;;;;4.52;100.00;100891.56;10461237;28;20040;-80
2022/03/18 21:19:01;;;;;;;;;;;;;;;4.39;100.00;100892.50;10438673;28;19976;-79
2022/03/18 21:24:04;;;;;;;;;;;;;;;4.28;100.00;100893.19;10442720;28;19951;-83
2022/03/18 21:34:24;;;;;;;;;;;;;;;4.16;100.00;100898.38;10423662;28;19984;-80
2022/03/18 21:39:24;;;;;;;;;;;;;;;4.11;100.00;100887.56;10445929;28;20005;-81
2022/03/18 21:44:25;;;;;;;;;;;;;;;4.03;100.00;100881.75;10409199;28;20283;-81
2022/03/18 21:49:27;;;;;;;;;;;;;;;4.01;100.00;100892.56;10388466;28;19929;-83
2022/03/18 21:55:01;;;;;;;;;;;;;;;3.98;100.00;100893.00;10438275;28;19929;-78
2022/03/18 22:00:06;;;;;;;;;;;;;;;3.98;100.00;100900.97;10427700;28;19929;-79
2022/03/18 22:22:27;;;;;;;;;;;;;;;3.75;100.00;100896.22;10395560;28;19933;-80
2022/03/18 22:27:30;;;;;;;;;;;;;;;3.60;100.00;100893.84;10353781;28;19969;-81
2022/03/18 22:32:30;;;;;;;;;;;;;;;3.60;100.00;100899.16;10339147;28;19930;-77
2022/03/18 22:37:31;;;;;;;;;;;;;;;3.68;100.00;100900.75;10336222;28;19930;-78
2022/03/18 22:42:33;;;;;;;;;;;;;;;3.38;100.00;100903.13;10356731;28;19960;-81
2022/03/18 22:47:35;;;;;;;;;;;;;;;3.18;100.00;100899.75;10358923;28;19926;-80
2022/03/18 22:52:39;;;;;;;;;;;;;;;3.03;100.00;100913.28;10357238;28;19918;-78
2022/03/18 22:57:40;;;;;;;;;;;;;;;2.90;100.00;100908.81;10334136;28;19952;-79
2022/03/18 23:02:41;;;;;;;;;;;;;;;2.79;100.00;100912.09;10343194;28;19976;-80
2022/03/18 23:07:41;;;;;;;;;;;;;;;2.62;100.00;100908.25;10328103;28;19977;-78
2022/03/18 23:12:41;;;;;;;;;;;;;;;2.64;100.00;100909.66;10307255;28;19930;-81
2022/03/18 23:17:42;;;;;;;;;;;;;;;2.57;100.00;100900.94;10327571;28;20450;-78
2022/03/18 23:22:43;;;;;;;;;;;;;;;2.80;100.00;100897.81;10323297;28;19929;-78
2022/03/18 23:27:44;;;;;;;;;;;;;;;2.85;100.00;100900.69;10337520;28;19937;-78
2022/03/18 23:32:45;;;;;;;;;;;;;;;2.98;100.00;100895.31;10344099;28;19958;-79
2022/03/18 23:37:46;;;;;;;;;;;;;;;3.06;100.00;100889.78;10334844;28;19930;-77
2022/03/18 23:42:46;;;;;;;;;;;;;;;3.00;100.00;100880.00;10340514;28;19937;-79
2022/03/18 23:47:50;;;;;;;;;;;;;;;2.96;100.00;100892.06;10334909;28;20278;-79
2022/03/18 23:52:50;;;;;;;;;;;;;;;2.83;100.00;100881.47;10323727;28;19953;-84
2022/03/18 23:57:51;;;;;;;;;;;;;;;2.69;100.00;100885.19;10341315;28;19920;-84
